sensor_id;sensor_type;location;lat;lon;timestamp;temperature;humidity
13344;DHT22;6741;48.964;9.406;2022-11-03T00:01:04;5.30;99.90
13344;DHT22;6741;48.964;9.406;2022-11-03T00:03:31;5.20;99.90
13344;DHT22;6741;48.964;9.406;2022-11-03T00:05:58;5.20;99.90
13344;DHT22;6741;48.964;9.406;2022-11-03T00:08:34;5.20;99.90
13344;DHT22;6741;48.964;9.406;2022-11-03T00:11:06;5.20;99.90
13344;DHT22;6741;48.964;9.406;2022-11-03T00:13:34;5.20;99.90
13344;DHT22;6741;48.964;9.406;2022-11-03T00:16:01;5.10;99.90
13344;DHT22;6741;48.964;9.406;2022-11-03T00:18:28;5.10;99.90
13344;DHT22;6741;48.964;9.406;2022-11-03T00:20:59;5.10;99.90
13344;DHT22;6741;48.964;9.406;2022-11-03T00:23:28;5.10;99.90
13344;DHT22;6741;48.964;9.406;2022-11-03T00:26:02;5.20;99.90
13344;DHT22;6741;48.964;9.406;2022-11-03T00:28:30;5.20;99.90
13344;DHT22;6741;48.964;9.406;2022-11-03T00:30:58;5.20;99.90
13344;DHT22;6741;48.964;9.406;2022-11-03T00:33:25;5.10;99.90
13344;DHT22;6741;48.964;9.406;2022-11-03T00:35:56;5.10;99.90
13344;DHT22;6741;48.964;9.406;2022-11-03T00:38:24;5.00;99.90
13344;DHT22;6741;48.964;9.406;2022-11-03T00:40:54;5.00;99.90
13344;DHT22;6741;48.964;9.406;2022-11-03T00:43:23;5.00;99.90
13344;DHT22;6741;48.964;9.406;2022-11-03T00:45:51;5.00;99.90
13344;DHT22;6741;48.964;9.406;2022-11-03T00:48:18;5.00;99.90
13344;DHT22;6741;48.964;9.406;2022-11-03T00:50:59;4.90;99.90
13344;DHT22;6741;48.964;9.406;2022-11-03T00:53:27;4.90;99.90
13344;DHT22;6741;48.964;9.406;2022-11-03T00:55:54;4.90;99.90
13344;DHT22;6741;48.964;9.406;2022-11-03T00:58:22;4.90;99.90
13344;DHT22;6741;48.964;9.406;2022-11-03T01:00:49;4.90;99.90
13344;DHT22;6741;48.964;9.406;2022-11-03T01:03:16;4.80;99.90
13344;DHT22;6741;48.964;9.406;2022-11-03T01:05:44;4.80;99.90
13344;DHT22;6741;48.964;9.406;2022-11-03T01:08:30;4.80;99.90
13344;DHT22;6741;48.964;9.406;2022-11-03T01:11:04;4.80;99.90
13344;DHT22;6741;48.964;9.406;2022-11-03T01:13:49;4.90;99.90
13344;DHT22;6741;48.964;9.406;2022-11-03T01:16:16;4.90;99.90
13344;DHT22;6741;48.964;9.406;2022-11-03T01:18:43;4.90;99.90
13344;DHT22;6741;48.964;9.406;2022-11-03T01:21:10;4.70;99.90
13344;DHT22;6741;48.964;9.406;2022-11-03T01:23:37;4.70;99.90
13344;DHT22;6741;48.964;9.406;2022-11-03T01:26:05;4.50;99.90
13344;DHT22;6741;48.964;9.406;2022-11-03T01:28:32;4.40;99.90
13344;DHT22;6741;48.964;9.406;2022-11-03T01:31:04;4.30;99.90
13344;DHT22;6741;48.964;9.406;2022-11-03T01:33:31;4.20;99.90
13344;DHT22;6741;48.964;9.406;2022-11-03T01:35:59;4.20;99.90
13344;DHT22;6741;48.964;9.406;2022-11-03T01:38:26;4.20;99.90
13344;DHT22;6741;48.964;9.406;2022-11-03T01:40:53;4.20;99.90
13344;DHT22;6741;48.964;9.406;2022-11-03T01:43:22;4.30;99.90
13344;DHT22;6741;48.964;9.406;2022-11-03T01:45:52;4.30;99.90
13344;DHT22;6741;48.964;9.406;2022-11-03T01:48:23;4.40;99.90
13344;DHT22;6741;48.964;9.406;2022-11-03T01:50:51;4.50;99.90
13344;DHT22;6741;48.964;9.406;2022-11-03T01:53:19;4.50;99.90
13344;DHT22;6741;48.964;9.406;2022-11-03T01:55:47;4.40;99.90
13344;DHT22;6741;48.964;9.406;2022-11-03T01:58:19;4.40;99.90
13344;DHT22;6741;48.964;9.406;2022-11-03T02:00:49;4.30;99.90
13344;DHT22;6741;48.964;9.406;2022-11-03T02:03:18;4.30;99.90
13344;DHT22;6741;48.964;9.406;2022-11-03T02:05:48;4.30;99.90
13344;DHT22;6741;48.964;9.406;2022-11-03T02:08:18;4.30;99.90
13344;DHT22;6741;48.964;9.406;2022-11-03T02:10:47;4.50;99.90
13344;DHT22;6741;48.964;9.406;2022-11-03T02:13:17;4.50;99.90
13344;DHT22;6741;48.964;9.406;2022-11-03T02:15:46;4.50;99.90
13344;DHT22;6741;48.964;9.406;2022-11-03T02:18:15;4.50;99.90
13344;DHT22;6741;48.964;9.406;2022-11-03T02:20:44;4.50;99.90
13344;DHT22;6741;48.964;9.406;2022-11-03T02:23:20;4.50;99.90
13344;DHT22;6741;48.964;9.406;2022-11-03T02:25:54;4.50;99.90
13344;DHT22;6741;48.964;9.406;2022-11-03T02:28:24;4.20;99.90
13344;DHT22;6741;48.964;9.406;2022-11-03T02:30:58;4.00;99.90
13344;DHT22;6741;48.964;9.406;2022-11-03T02:33:44;4.00;99.90
13344;DHT22;6741;48.964;9.406;2022-11-03T02:36:17;4.00;99.90
13344;DHT22;6741;48.964;9.406;2022-11-03T02:38:49;4.00;99.90
13344;DHT22;6741;48.964;9.406;2022-11-03T02:41:21;3.80;99.90
13344;DHT22;6741;48.964;9.406;2022-11-03T02:43:49;3.90;99.90
13344;DHT22;6741;48.964;9.406;2022-11-03T02:46:18;3.90;99.90
13344;DHT22;6741;48.964;9.406;2022-11-03T02:48:46;3.90;99.90
13344;DHT22;6741;48.964;9.406;2022-11-03T02:51:14;3.80;99.90
13344;DHT22;6741;48.964;9.406;2022-11-03T02:53:43;3.80;99.90
13344;DHT22;6741;48.964;9.406;2022-11-03T02:56:15;3.80;99.90
13344;DHT22;6741;48.964;9.406;2022-11-03T02:58:50;3.80;99.90
13344;DHT22;6741;48.964;9.406;2022-11-03T03:01:21;4.00;99.90
13344;DHT22;6741;48.964;9.406;2022-11-03T03:03:52;4.00;99.90
13344;DHT22;6741;48.964;9.406;2022-11-03T03:06:22;4.00;99.90
13344;DHT22;6741;48.964;9.406;2022-11-03T03:08:54;4.00;99.90
13344;DHT22;6741;48.964;9.406;2022-11-03T03:11:22;3.90;99.90
13344;DHT22;6741;48.964;9.406;2022-11-03T03:14:06;3.90;99.90
13344;DHT22;6741;48.964;9.406;2022-11-03T03:16:42;3.90;99.90
13344;DHT22;6741;48.964;9.406;2022-11-03T03:19:20;3.80;99.90
13344;DHT22;6741;48.964;9.406;2022-11-03T03:21:51;3.80;99.90
13344;DHT22;6741;48.964;9.406;2022-11-03T03:24:24;3.80;99.90
13344;DHT22;6741;48.964;9.406;2022-11-03T03:26:53;3.70;99.90
13344;DHT22;6741;48.964;9.406;2022-11-03T03:29:28;3.70;99.90
13344;DHT22;6741;48.964;9.406;2022-11-03T03:31:58;3.60;99.90
13344;DHT22;6741;48.964;9.406;2022-11-03T03:34:26;3.60;99.90
13344;DHT22;6741;48.964;9.406;2022-11-03T03:36:56;3.70;99.90
13344;DHT22;6741;48.964;9.406;2022-11-03T03:39:27;3.80;99.90
13344;DHT22;6741;48.964;9.406;2022-11-03T03:41:58;3.90;99.90
13344;DHT22;6741;48.964;9.406;2022-11-03T03:44:29;4.00;99.90
13344;DHT22;6741;48.964;9.406;2022-11-03T03:47:00;4.00;99.90
13344;DHT22;6741;48.964;9.406;2022-11-03T03:49:29;4.00;99.90
13344;DHT22;6741;48.964;9.406;2022-11-03T03:51:56;3.90;99.90
13344;DHT22;6741;48.964;9.406;2022-11-03T03:54:23;3.80;99.90
13344;DHT22;6741;48.964;9.406;2022-11-03T03:56:55;3.70;99.90
13344;DHT22;6741;48.964;9.406;2022-11-03T03:59:23;3.70;99.90
13344;DHT22;6741;48.964;9.406;2022-11-03T04:01:51;3.80;99.90
13344;DHT22;6741;48.964;9.406;2022-11-03T04:04:18;3.90;99.90
13344;DHT22;6741;48.964;9.406;2022-11-03T04:06:45;3.80;99.90
13344;DHT22;6741;48.964;9.406;2022-11-03T04:09:12;3.80;99.90
13344;DHT22;6741;48.964;9.406;2022-11-03T04:11:39;3.70;99.90
13344;DHT22;6741;48.964;9.406;2022-11-03T04:14:23;3.60;99.90
13344;DHT22;6741;48.964;9.406;2022-11-03T04:17:17;3.60;99.90
13344;DHT22;6741;48.964;9.406;2022-11-03T04:20:02;3.60;99.90
13344;DHT22;6741;48.964;9.406;2022-11-03T04:22:46;3.80;99.90
13344;DHT22;6741;48.964;9.406;2022-11-03T04:25:14;3.90;99.90
13344;DHT22;6741;48.964;9.406;2022-11-03T04:27:41;3.90;99.90
13344;DHT22;6741;48.964;9.406;2022-11-03T04:30:14;3.90;99.90
13344;DHT22;6741;48.964;9.406;2022-11-03T04:32:44;3.90;99.90
13344;DHT22;6741;48.964;9.406;2022-11-03T04:35:16;4.00;99.90
13344;DHT22;6741;48.964;9.406;2022-11-03T04:37:44;4.00;99.90
13344;DHT22;6741;48.964;9.406;2022-11-03T04:40:15;4.00;99.90
13344;DHT22;6741;48.964;9.406;2022-11-03T04:42:43;4.00;99.90
13344;DHT22;6741;48.964;9.406;2022-11-03T04:45:22;4.00;99.90
13344;DHT22;6741;48.964;9.406;2022-11-03T04:47:51;4.00;99.90
13344;DHT22;6741;48.964;9.406;2022-11-03T04:50:21;4.00;99.90
13344;DHT22;6741;48.964;9.406;2022-11-03T04:52:52;4.00;99.90
13344;DHT22;6741;48.964;9.406;2022-11-03T04:55:20;3.80;99.90
13344;DHT22;6741;48.964;9.406;2022-11-03T04:57:47;3.70;99.90
13344;DHT22;6741;48.964;9.406;2022-11-03T05:00:17;3.50;99.90
13344;DHT22;6741;48.964;9.406;2022-11-03T05:02:46;3.40;99.90
13344;DHT22;6741;48.964;9.406;2022-11-03T05:05:17;3.30;99.90
13344;DHT22;6741;48.964;9.406;2022-11-03T05:07:46;3.30;99.90
13344;DHT22;6741;48.964;9.406;2022-11-03T05:10:16;3.20;99.90
13344;DHT22;6741;48.964;9.406;2022-11-03T05:12:44;3.20;99.90
13344;DHT22;6741;48.964;9.406;2022-11-03T05:15:27;3.20;99.90
13344;DHT22;6741;48.964;9.406;2022-11-03T05:17:56;3.30;99.90
13344;DHT22;6741;48.964;9.406;2022-11-03T05:20:30;3.30;99.90
13344;DHT22;6741;48.964;9.406;2022-11-03T05:22:58;3.20;99.90
13344;DHT22;6741;48.964;9.406;2022-11-03T05:25:34;3.30;99.90
13344;DHT22;6741;48.964;9.406;2022-11-03T05:28:19;3.40;99.90
13344;DHT22;6741;48.964;9.406;2022-11-03T05:30:47;3.50;99.90
13344;DHT22;6741;48.964;9.406;2022-11-03T05:33:23;3.40;99.90
13344;DHT22;6741;48.964;9.406;2022-11-03T05:35:52;3.40;99.90
13344;DHT22;6741;48.964;9.406;2022-11-03T05:38:20;3.40;99.90
13344;DHT22;6741;48.964;9.406;2022-11-03T05:40:50;3.30;99.90
13344;DHT22;6741;48.964;9.406;2022-11-03T05:43:18;3.30;99.90
13344;DHT22;6741;48.964;9.406;2022-11-03T05:45:46;3.20;99.90
13344;DHT22;6741;48.964;9.406;2022-11-03T05:48:18;3.20;99.90
13344;DHT22;6741;48.964;9.406;2022-11-03T05:50:47;3.30;99.90
13344;DHT22;6741;48.964;9.406;2022-11-03T05:53:30;3.30;99.90
13344;DHT22;6741;48.964;9.406;2022-11-03T05:56:00;3.20;99.90
13344;DHT22;6741;48.964;9.406;2022-11-03T05:58:30;3.30;99.90
13344;DHT22;6741;48.964;9.406;2022-11-03T06:01:00;3.30;99.90
13344;DHT22;6741;48.964;9.406;2022-11-03T06:03:28;3.40;99.90
13344;DHT22;6741;48.964;9.406;2022-11-03T06:05:56;3.40;99.90
13344;DHT22;6741;48.964;9.406;2022-11-03T06:08:26;3.50;99.90
13344;DHT22;6741;48.964;9.406;2022-11-03T06:10:59;3.50;99.90
13344;DHT22;6741;48.964;9.406;2022-11-03T06:13:29;3.50;99.90
13344;DHT22;6741;48.964;9.406;2022-11-03T06:16:02;3.40;99.90
13344;DHT22;6741;48.964;9.406;2022-11-03T06:18:32;3.30;99.90
13344;DHT22;6741;48.964;9.406;2022-11-03T06:21:06;3.20;99.90
13344;DHT22;6741;48.964;9.406;2022-11-03T06:23:35;3.20;99.90
13344;DHT22;6741;48.964;9.406;2022-11-03T06:26:12;3.30;99.90
13344;DHT22;6741;48.964;9.406;2022-11-03T06:28:40;3.30;99.90
13344;DHT22;6741;48.964;9.406;2022-11-03T06:31:13;3.30;99.90
13344;DHT22;6741;48.964;9.406;2022-11-03T06:33:42;3.30;99.90
13344;DHT22;6741;48.964;9.406;2022-11-03T06:36:14;3.30;99.90
13344;DHT22;6741;48.964;9.406;2022-11-03T06:38:45;3.30;99.90
13344;DHT22;6741;48.964;9.406;2022-11-03T06:41:22;3.30;99.90
13344;DHT22;6741;48.964;9.406;2022-11-03T06:43:50;3.20;99.90
13344;DHT22;6741;48.964;9.406;2022-11-03T06:46:19;3.40;99.90
13344;DHT22;6741;48.964;9.406;2022-11-03T06:48:47;3.70;99.90
13344;DHT22;6741;48.964;9.406;2022-11-03T06:51:17;3.80;99.90
13344;DHT22;6741;48.964;9.406;2022-11-03T06:53:45;3.90;99.90
13344;DHT22;6741;48.964;9.406;2022-11-03T06:56:15;4.00;99.90
13344;DHT22;6741;48.964;9.406;2022-11-03T06:58:46;4.20;99.90
13344;DHT22;6741;48.964;9.406;2022-11-03T07:01:15;4.30;99.90
13344;DHT22;6741;48.964;9.406;2022-11-03T07:03:42;4.50;99.90
13344;DHT22;6741;48.964;9.406;2022-11-03T07:06:16;4.50;99.90
13344;DHT22;6741;48.964;9.406;2022-11-03T07:08:47;4.60;99.90
13344;DHT22;6741;48.964;9.406;2022-11-03T07:11:19;4.70;99.90
13344;DHT22;6741;48.964;9.406;2022-11-03T07:13:49;4.70;99.90
13344;DHT22;6741;48.964;9.406;2022-11-03T07:16:20;4.80;99.90
13344;DHT22;6741;48.964;9.406;2022-11-03T07:18:49;4.90;99.90
13344;DHT22;6741;48.964;9.406;2022-11-03T07:21:33;5.00;99.90
13344;DHT22;6741;48.964;9.406;2022-11-03T07:24:02;5.00;99.90
13344;DHT22;6741;48.964;9.406;2022-11-03T07:26:32;5.10;99.90
13344;DHT22;6741;48.964;9.406;2022-11-03T07:29:01;5.30;99.90
13344;DHT22;6741;48.964;9.406;2022-11-03T07:31:28;5.40;99.90
13344;DHT22;6741;48.964;9.406;2022-11-03T07:33:57;5.60;99.90
13344;DHT22;6741;48.964;9.406;2022-11-03T07:36:27;5.80;99.90
13344;DHT22;6741;48.964;9.406;2022-11-03T07:38:59;6.00;99.90
13344;DHT22;6741;48.964;9.406;2022-11-03T07:41:30;6.20;99.90
13344;DHT22;6741;48.964;9.406;2022-11-03T07:44:00;6.30;99.90
13344;DHT22;6741;48.964;9.406;2022-11-03T07:46:28;6.40;99.90
13344;DHT22;6741;48.964;9.406;2022-11-03T07:48:56;6.60;99.90
13344;DHT22;6741;48.964;9.406;2022-11-03T07:51:26;6.60;99.90
13344;DHT22;6741;48.964;9.406;2022-11-03T07:53:56;6.80;99.90
13344;DHT22;6741;48.964;9.406;2022-11-03T07:56:25;6.90;99.90
13344;DHT22;6741;48.964;9.406;2022-11-03T07:58:57;7.00;99.90
13344;DHT22;6741;48.964;9.406;2022-11-03T08:01:27;7.20;99.90
13344;DHT22;6741;48.964;9.406;2022-11-03T08:03:58;7.30;99.90
13344;DHT22;6741;48.964;9.406;2022-11-03T08:06:26;7.30;99.90
13344;DHT22;6741;48.964;9.406;2022-11-03T08:08:53;7.40;99.90
13344;DHT22;6741;48.964;9.406;2022-11-03T08:11:21;7.50;99.90
13344;DHT22;6741;48.964;9.406;2022-11-03T08:13:49;7.50;99.90
13344;DHT22;6741;48.964;9.406;2022-11-03T08:16:19;7.70;99.90
13344;DHT22;6741;48.964;9.406;2022-11-03T08:18:47;7.90;99.90
13344;DHT22;6741;48.964;9.406;2022-11-03T08:21:14;8.10;99.90
13344;DHT22;6741;48.964;9.406;2022-11-03T08:23:42;8.20;99.90
13344;DHT22;6741;48.964;9.406;2022-11-03T08:26:09;8.20;99.90
13344;DHT22;6741;48.964;9.406;2022-11-03T08:28:36;8.40;99.90
13344;DHT22;6741;48.964;9.406;2022-11-03T08:31:03;8.50;99.90
13344;DHT22;6741;48.964;9.406;2022-11-03T08:33:31;8.70;99.90
13344;DHT22;6741;48.964;9.406;2022-11-03T08:36:01;8.80;99.90
13344;DHT22;6741;48.964;9.406;2022-11-03T08:38:29;8.90;99.90
13344;DHT22;6741;48.964;9.406;2022-11-03T08:40:56;8.90;99.90
13344;DHT22;6741;48.964;9.406;2022-11-03T08:43:24;9.00;99.90
13344;DHT22;6741;48.964;9.406;2022-11-03T08:45:51;9.10;99.90
13344;DHT22;6741;48.964;9.406;2022-11-03T08:48:18;9.20;99.90
13344;DHT22;6741;48.964;9.406;2022-11-03T08:50:46;9.20;99.90
13344;DHT22;6741;48.964;9.406;2022-11-03T08:53:16;9.40;99.90
13344;DHT22;6741;48.964;9.406;2022-11-03T08:55:43;9.60;99.90
13344;DHT22;6741;48.964;9.406;2022-11-03T08:58:10;9.80;99.90
13344;DHT22;6741;48.964;9.406;2022-11-03T09:00:37;10.00;99.90
13344;DHT22;6741;48.964;9.406;2022-11-03T09:03:04;10.00;99.90
13344;DHT22;6741;48.964;9.406;2022-11-03T09:05:31;10.10;99.90
13344;DHT22;6741;48.964;9.406;2022-11-03T09:07:58;10.20;99.90
13344;DHT22;6741;48.964;9.406;2022-11-03T09:10:27;10.30;99.90
13344;DHT22;6741;48.964;9.406;2022-11-03T09:12:54;10.50;99.90
13344;DHT22;6741;48.964;9.406;2022-11-03T09:15:21;10.70;99.90
13344;DHT22;6741;48.964;9.406;2022-11-03T09:17:48;11.00;99.90
13344;DHT22;6741;48.964;9.406;2022-11-03T09:20:15;11.20;99.90
13344;DHT22;6741;48.964;9.406;2022-11-03T09:22:42;11.30;99.90
13344;DHT22;6741;48.964;9.406;2022-11-03T09:25:09;11.50;99.90
13344;DHT22;6741;48.964;9.406;2022-11-03T09:27:38;11.60;99.90
13344;DHT22;6741;48.964;9.406;2022-11-03T09:30:05;11.70;99.90
13344;DHT22;6741;48.964;9.406;2022-11-03T09:32:33;11.90;99.90
13344;DHT22;6741;48.964;9.406;2022-11-03T09:35:00;12.00;99.90
13344;DHT22;6741;48.964;9.406;2022-11-03T09:37:27;12.30;99.90
13344;DHT22;6741;48.964;9.406;2022-11-03T09:39:54;12.50;99.90
13344;DHT22;6741;48.964;9.406;2022-11-03T09:42:22;12.60;99.90
13344;DHT22;6741;48.964;9.406;2022-11-03T09:44:51;12.70;99.90
13344;DHT22;6741;48.964;9.406;2022-11-03T09:47:22;12.70;99.90
13344;DHT22;6741;48.964;9.406;2022-11-03T09:49:50;12.90;99.90
13344;DHT22;6741;48.964;9.406;2022-11-03T09:52:20;13.00;99.90
13344;DHT22;6741;48.964;9.406;2022-11-03T09:54:50;13.20;99.90
13344;DHT22;6741;48.964;9.406;2022-11-03T09:57:18;13.50;99.90
13344;DHT22;6741;48.964;9.406;2022-11-03T09:59:47;13.90;99.90
13344;DHT22;6741;48.964;9.406;2022-11-03T10:02:21;14.10;92.30
13344;DHT22;6741;48.964;9.406;2022-11-03T10:04:51;14.10;76.70
13344;DHT22;6741;48.964;9.406;2022-11-03T10:07:19;14.10;68.20
13344;DHT22;6741;48.964;9.406;2022-11-03T10:09:49;14.10;93.20
13344;DHT22;6741;48.964;9.406;2022-11-03T10:12:17;14.40;89.60
13344;DHT22;6741;48.964;9.406;2022-11-03T10:14:45;14.60;83.40
13344;DHT22;6741;48.964;9.406;2022-11-03T10:17:15;14.80;80.50
13344;DHT22;6741;48.964;9.406;2022-11-03T10:19:46;15.10;61.90
13344;DHT22;6741;48.964;9.406;2022-11-03T10:22:14;15.20;39.80
13344;DHT22;6741;48.964;9.406;2022-11-03T10:24:41;15.40;23.00
13344;DHT22;6741;48.964;9.406;2022-11-03T10:27:20;15.30;36.30
13344;DHT22;6741;48.964;9.406;2022-11-03T10:30:06;15.30;46.40
13344;DHT22;6741;48.964;9.406;2022-11-03T10:32:34;15.30;55.70
13344;DHT22;6741;48.964;9.406;2022-11-03T10:35:08;15.40;22.70
13344;DHT22;6741;48.964;9.406;2022-11-03T10:37:54;15.20;28.60
13344;DHT22;6741;48.964;9.406;2022-11-03T10:40:33;15.20;1.00
13344;DHT22;6741;48.964;9.406;2022-11-03T10:43:01;15.30;7.70
13344;DHT22;6741;48.964;9.406;2022-11-03T10:45:27;15.30;20.60
13344;DHT22;6741;48.964;9.406;2022-11-03T10:47:59;15.40;1.00
13344;DHT22;6741;48.964;9.406;2022-11-03T10:50:28;15.40;1.00
13344;DHT22;6741;48.964;9.406;2022-11-03T10:52:55;15.30;1.00
13344;DHT22;6741;48.964;9.406;2022-11-03T10:55:23;15.20;1.00
13344;DHT22;6741;48.964;9.406;2022-11-03T10:57:51;15.20;5.90
13344;DHT22;6741;48.964;9.406;2022-11-03T11:00:20;15.30;1.00
13344;DHT22;6741;48.964;9.406;2022-11-03T11:02:48;15.30;1.00
13344;DHT22;6741;48.964;9.406;2022-11-03T11:05:19;15.20;1.00
13344;DHT22;6741;48.964;9.406;2022-11-03T11:07:49;15.00;1.00
13344;DHT22;6741;48.964;9.406;2022-11-03T11:10:18;14.90;1.00
13344;DHT22;6741;48.964;9.406;2022-11-03T11:13:14;14.80;1.00
13344;DHT22;6741;48.964;9.406;2022-11-03T11:15:50;14.70;1.00
13344;DHT22;6741;48.964;9.406;2022-11-03T11:21:49;14.60;8.20
13344;DHT22;6741;48.964;9.406;2022-11-03T11:24:56;14.70;8.40
13344;DHT22;6741;48.964;9.406;2022-11-03T11:33:31;14.80;19.90
13344;DHT22;6741;48.964;9.406;2022-11-03T11:39:06;14.70;61.30
13344;DHT22;6741;48.964;9.406;2022-11-03T11:42:06;14.70;69.30
13344;DHT22;6741;48.964;9.406;2022-11-03T11:44:56;14.80;80.30
13344;DHT22;6741;48.964;9.406;2022-11-03T11:47:45;14.90;71.70
13344;DHT22;6741;48.964;9.406;2022-11-03T11:50:28;14.90;62.00
13344;DHT22;6741;48.964;9.406;2022-11-03T11:53:17;14.90;32.80
13344;DHT22;6741;48.964;9.406;2022-11-03T11:55:55;14.80;62.60
13344;DHT22;6741;48.964;9.406;2022-11-03T11:58:31;14.80;71.60
13344;DHT22;6741;48.964;9.406;2022-11-03T12:01:02;14.90;77.20
13344;DHT22;6741;48.964;9.406;2022-11-03T12:03:35;14.80;69.00
13344;DHT22;6741;48.964;9.406;2022-11-03T12:06:04;14.70;65.80
13344;DHT22;6741;48.964;9.406;2022-11-03T12:08:31;14.80;78.10
13344;DHT22;6741;48.964;9.406;2022-11-03T12:11:00;15.00;72.00
13344;DHT22;6741;48.964;9.406;2022-11-03T12:13:44;15.00;58.10
13344;DHT22;6741;48.964;9.406;2022-11-03T12:16:28;14.90;64.50
13344;DHT22;6741;48.964;9.406;2022-11-03T12:18:55;15.00;58.20
13344;DHT22;6741;48.964;9.406;2022-11-03T12:21:45;15.00;46.00
13344;DHT22;6741;48.964;9.406;2022-11-03T12:27:40;15.00;51.10
13344;DHT22;6741;48.964;9.406;2022-11-03T12:30:14;15.00;56.60
13344;DHT22;6741;48.964;9.406;2022-11-03T12:32:42;15.10;56.00
13344;DHT22;6741;48.964;9.406;2022-11-03T12:35:09;15.10;57.10
13344;DHT22;6741;48.964;9.406;2022-11-03T12:37:38;15.10;48.60
13344;DHT22;6741;48.964;9.406;2022-11-03T12:40:06;15.10;40.00
13344;DHT22;6741;48.964;9.406;2022-11-03T12:42:33;15.10;48.00
13344;DHT22;6741;48.964;9.406;2022-11-03T12:45:00;15.10;34.00
13344;DHT22;6741;48.964;9.406;2022-11-03T12:47:28;15.00;34.30
13344;DHT22;6741;48.964;9.406;2022-11-03T12:49:55;14.90;28.00
13344;DHT22;6741;48.964;9.406;2022-11-03T12:52:22;14.80;29.30
13344;DHT22;6741;48.964;9.406;2022-11-03T12:54:49;14.80;33.20
13344;DHT22;6741;48.964;9.406;2022-11-03T12:57:16;14.80;19.50
13344;DHT22;6741;48.964;9.406;2022-11-03T12:59:43;14.70;32.10
13344;DHT22;6741;48.964;9.406;2022-11-03T13:02:10;14.60;43.10
13344;DHT22;6741;48.964;9.406;2022-11-03T13:04:38;14.60;62.90
13344;DHT22;6741;48.964;9.406;2022-11-03T13:07:05;14.60;83.70
13344;DHT22;6741;48.964;9.406;2022-11-03T13:09:32;14.50;98.20
13344;DHT22;6741;48.964;9.406;2022-11-03T13:12:00;14.40;96.30
13344;DHT22;6741;48.964;9.406;2022-11-03T13:14:44;14.40;99.90
13344;DHT22;6741;48.964;9.406;2022-11-03T13:17:11;14.40;99.40
13344;DHT22;6741;48.964;9.406;2022-11-03T13:19:39;14.40;99.00
13344;DHT22;6741;48.964;9.406;2022-11-03T13:22:06;14.50;68.90
13344;DHT22;6741;48.964;9.406;2022-11-03T13:24:33;14.50;53.20
13344;DHT22;6741;48.964;9.406;2022-11-03T13:27:00;14.60;44.80
13344;DHT22;6741;48.964;9.406;2022-11-03T13:29:27;14.50;54.20
13344;DHT22;6741;48.964;9.406;2022-11-03T13:31:54;14.50;57.00
13344;DHT22;6741;48.964;9.406;2022-11-03T13:34:21;14.40;61.50
13344;DHT22;6741;48.964;9.406;2022-11-03T13:36:49;14.50;65.20
13344;DHT22;6741;48.964;9.406;2022-11-03T13:39:17;14.40;77.20
13344;DHT22;6741;48.964;9.406;2022-11-03T13:41:43;14.30;71.20
13344;DHT22;6741;48.964;9.406;2022-11-03T13:44:10;14.30;52.20
13344;DHT22;6741;48.964;9.406;2022-11-03T13:46:37;14.20;48.10
13344;DHT22;6741;48.964;9.406;2022-11-03T13:49:06;14.20;47.90
13344;DHT22;6741;48.964;9.406;2022-11-03T13:51:33;14.20;50.30
13344;DHT22;6741;48.964;9.406;2022-11-03T13:54:02;14.10;50.80
13344;DHT22;6741;48.964;9.406;2022-11-03T13:56:29;14.10;50.40
13344;DHT22;6741;48.964;9.406;2022-11-03T13:58:56;14.00;85.80
13344;DHT22;6741;48.964;9.406;2022-11-03T14:01:23;14.00;83.50
13344;DHT22;6741;48.964;9.406;2022-11-03T14:03:50;14.00;90.90
13344;DHT22;6741;48.964;9.406;2022-11-03T14:06:17;13.90;93.90
13344;DHT22;6741;48.964;9.406;2022-11-03T14:08:43;13.80;95.40
13344;DHT22;6741;48.964;9.406;2022-11-03T14:11:12;13.80;99.10
13344;DHT22;6741;48.964;9.406;2022-11-03T14:13:56;13.70;99.90
13344;DHT22;6741;48.964;9.406;2022-11-03T14:16:23;13.70;99.90
13344;DHT22;6741;48.964;9.406;2022-11-03T14:18:50;13.60;99.90
13344;DHT22;6741;48.964;9.406;2022-11-03T14:21:17;13.50;99.90
13344;DHT22;6741;48.964;9.406;2022-11-03T14:23:44;13.50;99.90
13344;DHT22;6741;48.964;9.406;2022-11-03T14:26:12;13.50;99.90
13344;DHT22;6741;48.964;9.406;2022-11-03T14:28:39;13.40;99.90
13344;DHT22;6741;48.964;9.406;2022-11-03T14:31:06;13.40;99.90
13344;DHT22;6741;48.964;9.406;2022-11-03T14:33:33;13.30;99.90
13344;DHT22;6741;48.964;9.406;2022-11-03T14:36:00;13.30;99.90
13344;DHT22;6741;48.964;9.406;2022-11-03T14:38:27;13.30;99.90
13344;DHT22;6741;48.964;9.406;2022-11-03T14:40:54;13.30;99.90
13344;DHT22;6741;48.964;9.406;2022-11-03T14:43:39;13.20;99.90
13344;DHT22;6741;48.964;9.406;2022-11-03T14:46:06;13.10;99.90
13344;DHT22;6741;48.964;9.406;2022-11-03T14:48:33;13.10;99.90
13344;DHT22;6741;48.964;9.406;2022-11-03T14:51:00;13.10;99.90
13344;DHT22;6741;48.964;9.406;2022-11-03T14:53:27;13.00;99.90
13344;DHT22;6741;48.964;9.406;2022-11-03T14:55:54;13.00;99.90
13344;DHT22;6741;48.964;9.406;2022-11-03T14:58:21;13.00;99.90
13344;DHT22;6741;48.964;9.406;2022-11-03T15:00:49;12.90;99.90
13344;DHT22;6741;48.964;9.406;2022-11-03T15:03:16;12.80;99.90
13344;DHT22;6741;48.964;9.406;2022-11-03T15:05:43;12.70;99.90
13344;DHT22;6741;48.964;9.406;2022-11-03T15:08:10;12.60;99.90
13344;DHT22;6741;48.964;9.406;2022-11-03T15:10:37;12.60;99.90
13344;DHT22;6741;48.964;9.406;2022-11-03T15:13:05;12.50;99.90
13344;DHT22;6741;48.964;9.406;2022-11-03T15:15:32;12.50;99.90
13344;DHT22;6741;48.964;9.406;2022-11-03T15:18:02;12.50;99.90
13344;DHT22;6741;48.964;9.406;2022-11-03T15:20:30;12.50;99.90
13344;DHT22;6741;48.964;9.406;2022-11-03T15:23:00;12.50;99.90
13344;DHT22;6741;48.964;9.406;2022-11-03T15:25:27;12.50;99.90
13344;DHT22;6741;48.964;9.406;2022-11-03T15:27:54;12.40;99.90
13344;DHT22;6741;48.964;9.406;2022-11-03T15:30:21;12.40;99.90
13344;DHT22;6741;48.964;9.406;2022-11-03T15:32:48;12.40;99.90
13344;DHT22;6741;48.964;9.406;2022-11-03T15:35:16;12.40;99.90
13344;DHT22;6741;48.964;9.406;2022-11-03T15:37:43;12.40;99.90
13344;DHT22;6741;48.964;9.406;2022-11-03T15:40:12;12.50;99.90
13344;DHT22;6741;48.964;9.406;2022-11-03T15:42:39;12.60;99.90
13344;DHT22;6741;48.964;9.406;2022-11-03T15:45:08;12.60;99.90
13344;DHT22;6741;48.964;9.406;2022-11-03T15:47:36;12.60;99.90
13344;DHT22;6741;48.964;9.406;2022-11-03T15:50:05;12.60;99.90
13344;DHT22;6741;48.964;9.406;2022-11-03T15:52:33;12.60;99.90
13344;DHT22;6741;48.964;9.406;2022-11-03T15:55:01;12.50;99.90
13344;DHT22;6741;48.964;9.406;2022-11-03T15:57:27;12.40;99.90
13344;DHT22;6741;48.964;9.406;2022-11-03T15:59:55;12.30;99.90
13344;DHT22;6741;48.964;9.406;2022-11-03T16:02:21;12.20;99.90
13344;DHT22;6741;48.964;9.406;2022-11-03T16:04:48;12.30;99.90
13344;DHT22;6741;48.964;9.406;2022-11-03T16:07:16;12.20;99.90
13344;DHT22;6741;48.964;9.406;2022-11-03T16:09:44;12.20;99.90
13344;DHT22;6741;48.964;9.406;2022-11-03T16:12:12;12.10;99.90
13344;DHT22;6741;48.964;9.406;2022-11-03T16:14:39;12.10;99.90
13344;DHT22;6741;48.964;9.406;2022-11-03T16:17:06;12.10;99.90
13344;DHT22;6741;48.964;9.406;2022-11-03T16:19:33;12.10;99.90
13344;DHT22;6741;48.964;9.406;2022-11-03T16:22:00;12.20;99.90
13344;DHT22;6741;48.964;9.406;2022-11-03T16:24:27;12.10;99.90
13344;DHT22;6741;48.964;9.406;2022-11-03T16:26:55;12.10;99.90
13344;DHT22;6741;48.964;9.406;2022-11-03T16:29:22;12.10;99.90